createdAt,value
2022-12-27T00:01:30.191Z,1.43
2022-12-27T00:04:01.021Z,1.83
2022-12-27T00:06:33.360Z,1.60
2022-12-27T00:09:03.376Z,1.73
2022-12-27T00:11:32.335Z,2.93
2022-12-27T00:14:05.279Z,3.47
2022-12-27T00:16:34.936Z,2.23
2022-12-27T00:19:05.449Z,1.53
2022-12-27T00:21:35.316Z,0.67
2022-12-27T00:24:05.212Z,1.80
2022-12-27T00:26:36.128Z,2.60
2022-12-27T00:29:05.403Z,1.77
2022-12-27T00:31:35.248Z,1.53
2022-12-27T00:34:08.274Z,1.63
2022-12-27T00:36:37.541Z,3.10
2022-12-27T00:39:07.133Z,2.67
2022-12-27T00:41:36.407Z,2.27
2022-12-27T00:44:06.198Z,3.37
2022-12-27T00:46:35.309Z,2.37
2022-12-27T00:49:05.720Z,1.07
2022-12-27T00:51:34.507Z,2.90
2022-12-27T00:54:02.997Z,1.70
2022-12-27T00:56:32.816Z,1.90
2022-12-27T00:59:03.608Z,1.90
2022-12-27T01:01:35.217Z,1.13
2022-12-27T01:04:06.154Z,2.57
2022-12-27T01:06:36.303Z,1.27
2022-12-27T01:09:05.981Z,0.53
2022-12-27T01:11:36.056Z,3.93
2022-12-27T01:14:06.221Z,0.73
2022-12-27T01:16:36.296Z,1.70
2022-12-27T01:19:06.974Z,0.80
2022-12-27T01:21:36.605Z,2.70
2022-12-27T01:24:11.754Z,0.90
2022-12-27T01:26:43.330Z,1.10
2022-12-27T01:29:14.123Z,1.20
2022-12-27T01:31:42.720Z,4.07
2022-12-27T01:34:13.858Z,1.27
2022-12-27T01:36:42.479Z,1.23
2022-12-27T01:39:13.054Z,1.87
2022-12-27T01:42:01.019Z,1.63
2022-12-27T01:44:57.930Z,2.77
2022-12-27T01:47:36.615Z,3.13
2022-12-27T01:50:14.550Z,0.83
2022-12-27T01:52:48.693Z,0.97
2022-12-27T01:55:28.414Z,0.93
2022-12-27T01:58:01.423Z,0.40
2022-12-27T02:00:32.804Z,2.90
2022-12-27T02:03:06.077Z,0.70
2022-12-27T02:05:42.286Z,2.03
2022-12-27T02:08:21.315Z,1.57
2022-12-27T02:10:51.644Z,1.23
2022-12-27T02:13:22.768Z,1.13
2022-12-27T02:15:52.244Z,0.53
2022-12-27T02:18:21.807Z,0.93
2022-12-27T02:21:13.163Z,1.07
2022-12-27T02:24:07.664Z,0.93
2022-12-27T02:26:59.083Z,1.40
2022-12-27T02:29:50.754Z,1.03
2022-12-27T02:32:26.196Z,0.77
2022-12-27T02:35:06.237Z,1.57
2022-12-27T02:37:38.737Z,1.73
2022-12-27T02:40:29.273Z,1.83
2022-12-27T02:43:15.886Z,2.20
2022-12-27T02:46:09.990Z,1.60
2022-12-27T02:48:56.086Z,1.63
2022-12-27T02:51:58.681Z,1.30
2022-12-27T02:54:45.311Z,1.50
2022-12-27T02:57:26.218Z,1.70
2022-12-27T03:00:24.514Z,3.60
2022-12-27T03:03:24.449Z,1.47
2022-12-27T03:06:38.517Z,3.13
2022-12-27T03:09:45.455Z,1.90
2022-12-27T03:12:42.460Z,2.47
2022-12-27T03:15:44.700Z,1.00
2022-12-27T03:18:20.508Z,1.20
2022-12-27T03:21:09.073Z,0.57
2022-12-27T03:23:59.886Z,3.13
2022-12-27T03:26:34.626Z,3.03
2022-12-27T03:29:22.240Z,2.90
2022-12-27T03:32:12.363Z,1.17
2022-12-27T03:34:49.566Z,2.53
2022-12-27T03:37:41.977Z,1.60
2022-12-27T03:40:19.131Z,1.07
2022-12-27T03:43:11.059Z,1.70
2022-12-27T03:46:16.729Z,3.67
2022-12-27T03:48:58.618Z,0.70
2022-12-27T03:51:33.842Z,1.50
2022-12-27T03:54:10.659Z,2.07
2022-12-27T03:56:42.271Z,2.90
2022-12-27T03:59:13.393Z,2.17
2022-12-27T04:01:43.057Z,1.10
2022-12-27T04:04:12.249Z,2.07
2022-12-27T04:06:42.670Z,1.33
2022-12-27T04:09:29.389Z,1.20
2022-12-27T04:12:16.886Z,2.00
2022-12-27T04:15:03.236Z,3.03
2022-12-27T04:17:50.629Z,9.30
2022-12-27T04:20:37.497Z,2.90
2022-12-27T04:23:27.468Z,2.20
2022-12-27T04:26:13.804Z,2.27
2022-12-27T04:29:02.555Z,2.03
2022-12-27T04:31:49.050Z,1.90
2022-12-27T04:34:36.941Z,1.20
2022-12-27T04:37:05.588Z,2.07
2022-12-27T04:39:36.268Z,2.53
2022-12-27T04:42:23.040Z,2.37
2022-12-27T04:45:21.776Z,1.77
2022-12-27T04:48:08.093Z,1.97
2022-12-27T04:50:55.938Z,1.03
2022-12-27T04:53:42.435Z,2.57
2022-12-27T04:56:12.422Z,2.17
2022-12-27T04:59:01.358Z,3.80
2022-12-27T05:01:48.766Z,2.90
2022-12-27T05:04:18.364Z,2.40
2022-12-27T05:06:46.950Z,7.90
2022-12-27T05:09:34.017Z,3.67
2022-12-27T05:12:23.218Z,4.47
2022-12-27T05:14:51.984Z,8.37
2022-12-27T05:17:20.864Z,11.77
2022-12-27T05:19:49.711Z,8.97
2022-12-27T05:22:36.525Z,4.70
2022-12-27T05:25:23.432Z,4.53
2022-12-27T05:27:54.034Z,2.87
2022-12-27T05:30:22.446Z,3.27
2022-12-27T05:32:55.620Z,1.63
2022-12-27T05:35:24.626Z,3.20
2022-12-27T05:37:55.288Z,8.03
2022-12-27T05:40:24.890Z,5.90
2022-12-27T05:42:55.801Z,5.30
2022-12-27T05:45:24.932Z,2.43
2022-12-27T05:47:54.116Z,3.73
2022-12-27T05:50:23.428Z,1.50
2022-12-27T05:52:52.875Z,3.00
2022-12-27T05:55:21.840Z,3.83
2022-12-27T05:57:50.329Z,2.20
2022-12-27T06:00:20.564Z,3.30
2022-12-27T06:02:50.334Z,3.23
2022-12-27T06:05:19.421Z,3.00
2022-12-27T06:07:48.995Z,5.50
2022-12-27T06:10:17.550Z,4.00
2022-12-27T06:12:46.324Z,4.00
2022-12-27T06:15:15.037Z,2.47
2022-12-27T06:17:45.794Z,4.03
2022-12-27T06:20:14.225Z,4.63
2022-12-27T06:22:43.229Z,1.77
2022-12-27T06:25:14.480Z,3.90
2022-12-27T06:27:43.382Z,2.27
2022-12-27T06:30:13.306Z,3.13
2022-12-27T06:32:41.931Z,2.93
2022-12-27T06:35:11.820Z,2.53
2022-12-27T06:37:41.857Z,3.37
2022-12-27T06:40:11.602Z,3.00
2022-12-27T06:42:40.185Z,3.40
2022-12-27T06:45:11.028Z,3.60
2022-12-27T06:47:39.560Z,3.77
2022-12-27T06:50:09.313Z,3.73
2022-12-27T06:52:39.408Z,2.63
2022-12-27T06:55:08.871Z,6.00
2022-12-27T06:57:37.430Z,6.50
2022-12-27T07:00:08.756Z,5.20
2022-12-27T07:02:39.516Z,1.80
2022-12-27T07:05:09.560Z,5.67
2022-12-27T07:07:39.445Z,3.73
2022-12-27T07:10:09.705Z,5.43
2022-12-27T07:12:38.436Z,2.47
2022-12-27T07:15:08.845Z,4.63
2022-12-27T07:17:39.248Z,5.60
2022-12-27T07:20:09.376Z,3.83
2022-12-27T07:22:39.762Z,3.27
2022-12-27T07:25:10.498Z,3.30
2022-12-27T07:27:39.393Z,6.03
2022-12-27T07:30:10.522Z,3.60
2022-12-27T07:32:39.257Z,1.93
2022-12-27T07:35:09.963Z,2.20
2022-12-27T07:37:40.600Z,3.53
2022-12-27T07:40:10.336Z,6.23
2022-12-27T07:42:41.247Z,4.07
2022-12-27T07:45:11.548Z,4.00
2022-12-27T07:47:47.079Z,3.40
2022-12-27T07:50:35.581Z,3.70
2022-12-27T07:56:54.138Z,4.90
2022-12-27T08:26:50.261Z,10.13
2022-12-27T08:29:19.918Z,7.67
2022-12-27T08:31:48.556Z,7.80
2022-12-27T08:34:18.086Z,4.73
2022-12-27T08:36:55.578Z,5.80
2022-12-27T08:39:25.441Z,5.00
2022-12-27T08:41:56.640Z,5.57
2022-12-27T08:44:27.447Z,2.90
2022-12-27T08:46:56.095Z,4.80
2022-12-27T08:49:24.652Z,7.00
2022-12-27T08:51:54.644Z,8.90
2022-12-27T08:54:27.199Z,4.87
2022-12-27T08:57:01.434Z,6.83
2022-12-27T08:59:32.075Z,3.47
2022-12-27T09:02:01.515Z,3.43
2022-12-27T09:04:37.363Z,4.20
2022-12-27T09:07:06.745Z,5.37
2022-12-27T09:09:35.193Z,2.90
2022-12-27T09:12:09.338Z,4.77
2022-12-27T09:14:38.478Z,5.50
2022-12-27T09:17:09.361Z,3.20
2022-12-27T09:19:38.342Z,1.60
2022-12-27T09:22:07.206Z,3.93
2022-12-27T09:24:36.099Z,1.90
2022-12-27T09:27:06.004Z,3.60
2022-12-27T09:29:35.156Z,5.47
2022-12-27T09:32:04.071Z,3.53
2022-12-27T09:34:33.224Z,5.13
2022-12-27T09:37:01.661Z,2.50
2022-12-27T09:39:31.746Z,4.33
2022-12-27T09:45:05.258Z,3.40
2022-12-27T09:47:40.118Z,3.50
2022-12-27T09:50:14.837Z,5.70
2022-12-27T09:52:52.780Z,3.27
2022-12-27T09:55:28.376Z,2.40
2022-12-27T09:58:04.165Z,3.57
2022-12-27T10:00:37.223Z,8.13
2022-12-27T10:03:08.121Z,1.97
2022-12-27T10:05:40.495Z,2.53
2022-12-27T10:08:27.703Z,4.90
2022-12-27T10:11:03.724Z,2.07
2022-12-27T10:13:44.862Z,1.83
2022-12-27T10:16:24.334Z,3.67
2022-12-27T10:19:17.409Z,2.37
2022-12-27T10:21:59.985Z,4.07
2022-12-27T10:24:36.763Z,7.73
2022-12-27T10:27:13.340Z,4.60
2022-12-27T10:29:42.539Z,3.63
2022-12-27T10:32:15.663Z,2.93
2022-12-27T10:34:45.434Z,4.03
2022-12-27T10:37:16.466Z,3.40
2022-12-27T10:39:46.132Z,3.70
2022-12-27T10:42:28.951Z,3.43
2022-12-27T10:45:36.507Z,2.77
2022-12-27T10:48:19.353Z,4.63
2022-12-27T10:50:55.838Z,3.13
2022-12-27T10:53:39.874Z,1.90
2022-12-27T10:56:35.888Z,2.40
2022-12-27T10:59:15.116Z,2.33
2022-12-27T11:01:45.998Z,2.60
2022-12-27T11:04:23.455Z,4.50
2022-12-27T11:07:12.642Z,1.80
2022-12-27T11:09:50.149Z,3.93
2022-12-27T11:12:24.084Z,2.30
2022-12-27T11:14:57.304Z,2.27
2022-12-27T11:17:30.238Z,5.10
2022-12-27T11:20:01.369Z,1.93
2022-12-27T11:22:30.860Z,2.27
2022-12-27T11:25:01.292Z,3.15
2022-12-27T11:27:35.553Z,4.37
2022-12-27T11:42:01.394Z,1.67
2022-12-27T12:44:14.078Z,1.85
2022-12-27T12:46:48.770Z,2.40
2022-12-27T14:56:00.200Z,2.83
2022-12-27T14:58:59.720Z,2.20
2022-12-27T15:01:43.010Z,1.83
2022-12-27T15:04:42.188Z,2.13
2022-12-27T15:07:31.173Z,3.53
2022-12-27T16:01:26.164Z,2.83
2022-12-27T16:03:58.460Z,3.60
2022-12-27T16:06:52.805Z,4.40
2022-12-27T16:09:38.682Z,3.60
2022-12-27T16:12:13.662Z,4.83
2022-12-27T16:14:44.678Z,2.70
2022-12-27T16:17:33.348Z,4.93
2022-12-27T16:20:16.969Z,5.23
2022-12-27T16:22:53.540Z,5.37
2022-12-27T16:25:31.157Z,5.77
2022-12-27T16:28:05.860Z,6.17
2022-12-27T16:30:43.063Z,3.87
2022-12-27T16:33:33.612Z,4.40
2022-12-27T16:36:16.015Z,4.53
2022-12-27T16:38:58.561Z,6.60
2022-12-27T16:41:43.410Z,6.90
2022-12-27T16:44:19.065Z,24.27
2022-12-27T16:47:03.535Z,17.93
2022-12-27T16:50:01.200Z,19.67
2022-12-27T16:53:04.668Z,24.67
2022-12-27T16:55:56.465Z,18.10
2022-12-27T16:58:35.776Z,19.07
2022-12-27T17:01:06.336Z,44.50
2022-12-27T17:03:49.493Z,36.47
2022-12-27T17:07:03.952Z,24.97
2022-12-27T17:09:44.915Z,28.83
2022-12-27T17:12:23.144Z,24.93
2022-12-27T17:15:00.165Z,33.27
2022-12-27T17:17:30.627Z,24.40
2022-12-27T17:20:04.883Z,28.43
2022-12-27T17:22:36.065Z,19.17
2022-12-27T17:25:16.015Z,23.90
2022-12-27T17:28:08.691Z,40.30
2022-12-27T17:30:50.319Z,36.10
2022-12-27T17:33:36.067Z,24.43
2022-12-27T17:36:21.947Z,16.37
2022-12-27T17:39:06.236Z,11.83
2022-12-27T17:42:05.918Z,14.70
2022-12-27T17:44:48.089Z,14.47
2022-12-27T17:47:42.709Z,17.53
2022-12-27T17:50:17.797Z,18.87
2022-12-27T17:53:22.668Z,19.57
2022-12-27T17:56:23.566Z,21.77
2022-12-27T17:59:05.172Z,21.43
2022-12-27T18:01:41.108Z,32.40
2022-12-27T18:04:23.303Z,23.40
2022-12-27T18:07:01.335Z,23.63
2022-12-27T18:09:45.205Z,14.07
2022-12-27T18:12:23.879Z,7.50
2022-12-27T18:15:02.272Z,9.77
2022-12-27T18:17:36.128Z,8.10
2022-12-27T18:20:31.977Z,9.80
2022-12-27T18:23:20.538Z,18.60
2022-12-27T18:25:57.775Z,18.57
2022-12-27T18:28:33.375Z,16.43
2022-12-27T18:31:14.803Z,15.60
2022-12-27T18:33:50.921Z,20.23
2022-12-27T18:36:32.033Z,17.20
2022-12-27T18:39:03.689Z,15.13
2022-12-27T18:41:40.119Z,12.07
2022-12-27T18:44:23.003Z,10.23
2022-12-27T18:47:00.302Z,10.23
2022-12-27T18:49:33.351Z,11.17
2022-12-27T18:52:07.671Z,14.77
2022-12-27T18:54:37.272Z,11.63
2022-12-27T18:57:08.241Z,8.50
2022-12-27T18:59:38.249Z,8.30
2022-12-27T19:02:34.467Z,7.90
2022-12-27T19:05:26.864Z,11.60
2022-12-27T19:08:00.723Z,10.63
2022-12-27T19:10:33.661Z,10.87
2022-12-27T19:13:03.201Z,14.27
2022-12-27T19:15:41.768Z,17.47
2022-12-27T19:18:23.231Z,20.90
2022-12-27T19:20:57.426Z,19.47
2022-12-27T19:23:31.453Z,14.33
2022-12-27T19:26:05.461Z,15.87
2022-12-27T19:28:35.276Z,18.67
2022-12-27T19:31:17.791Z,14.13
2022-12-27T19:33:53.901Z,18.97
2022-12-27T19:36:29.579Z,16.63
2022-12-27T19:39:00.975Z,16.63
2022-12-27T19:41:33.538Z,14.70
2022-12-27T19:44:04.887Z,15.63
2022-12-27T19:46:34.161Z,10.57
2022-12-27T19:51:58.763Z,5.73
2022-12-27T19:54:29.512Z,8.03
2022-12-27T19:56:58.521Z,7.63
2022-12-27T20:03:05.553Z,10.63
2022-12-27T20:10:26.170Z,11.20
2022-12-27T20:12:55.515Z,10.03
2022-12-27T20:15:25.577Z,14.10
2022-12-27T20:48:33.185Z,7.37
2022-12-27T20:51:08.590Z,19.40
2022-12-27T20:53:39.200Z,17.63
2022-12-27T20:58:52.840Z,13.57
2022-12-27T21:01:24.627Z,18.07
2022-12-27T21:03:56.564Z,18.07
2022-12-27T21:06:31.156Z,14.93
2022-12-27T21:09:01.155Z,14.13
2022-12-27T21:11:32.520Z,16.60
2022-12-27T21:14:04.837Z,14.87
2022-12-27T21:25:07.572Z,12.93
2022-12-27T21:39:49.686Z,7.87
2022-12-27T21:42:18.213Z,10.13
